Time;durP1;ratioP1;P1;durP2;ratioP2;P2;SDS_P1;SDS_P2;PMS_P1;PMS_P2;Temp;Humidity;BMP_temperature;BMP_pressure;BME280_temperature;BME280_humidity;BME280_pressure;Samples;Min_cycle;Max_cycle;Signal;HPM_P1;HPM_P2
2022/06/30 00:01:34;;;;;;;5.63;3.78;;;20.70;99.90;;;;;;5061334;28;20086;-65
2022/06/30 00:04:00;;;;;;;10.48;6.30;;;20.70;99.90;;;;;;5061581;28;20067;-64
2022/06/30 00:06:26;;;;;;;15.32;9.32;;;20.60;99.90;;;;;;5078681;28;20054;-64
2022/06/30 00:08:55;;;;;;;14.05;9.10;;;20.30;99.90;;;;;;5061327;28;20041;-61
2022/06/30 00:11:21;;;;;;;11.88;8.77;;;20.30;99.90;;;;;;5078719;28;20039;-63
2022/06/30 00:13:48;;;;;;;11.77;8.77;;;19.90;99.90;;;;;;5078472;28;20037;-63
2022/06/30 00:16:14;;;;;;;13.30;7.97;;;19.90;99.90;;;;;;5078883;28;20032;-63
2022/06/30 00:18:40;;;;;;;11.30;7.43;;;19.70;99.90;;;;;;5078475;28;20029;-67
2022/06/30 00:21:05;;;;;;;11.77;7.03;;;19.60;99.90;;;;;;5078577;28;20293;-65
2022/06/30 00:23:32;;;;;;;8.45;6.18;;;19.60;99.90;;;;;;5078298;28;20454;-63
2022/06/30 00:25:57;;;;;;;11.32;6.10;;;19.50;99.90;;;;;;5078042;28;20044;-65
2022/06/30 00:28:23;;;;;;;10.52;5.70;;;19.40;99.90;;;;;;5060885;28;20056;-64
2022/06/30 00:30:51;;;;;;;7.47;4.97;;;19.40;99.90;;;;;;5078398;28;20016;-64
2022/06/30 00:33:17;;;;;;;10.07;5.05;;;19.30;99.90;;;;;;5078154;28;20040;-68
2022/06/30 00:35:43;;;;;;;6.70;3.95;;;19.30;99.90;;;;;;5060804;28;20028;-65
2022/06/30 00:38:09;;;;;;;9.60;4.20;;;19.20;99.90;;;;;;5078153;28;20081;-64
2022/06/30 00:40:40;;;;;;;11.35;3.80;;;19.30;99.90;;;;;;5060795;28;20040;-61
2022/06/30 00:43:06;;;;;;;7.25;3.10;;;19.20;99.90;;;;;;5061609;28;20048;-63
2022/06/30 00:45:32;;;;;;;5.80;3.03;;;19.10;99.90;;;;;;5060910;28;20059;-65
2022/06/30 00:48:00;;;;;;;8.45;2.70;;;19.10;99.90;;;;;;5077675;28;20408;-64
2022/06/30 00:50:26;;;;;;;4.68;2.33;;;19.20;99.90;;;;;;5077970;28;20025;-66
2022/06/30 00:52:52;;;;;;;6.07;2.55;;;19.10;99.90;;;;;;5060230;28;20102;-65
2022/06/30 00:55:19;;;;;;;6.40;2.33;;;19.10;99.90;;;;;;5077917;28;20082;-63
2022/06/30 00:57:45;;;;;;;3.33;2.40;;;19.20;99.90;;;;;;5060165;28;20031;-61
2022/06/30 01:00:12;;;;;;;5.47;2.25;;;19.20;99.90;;;;;;5044441;28;20029;-65
2022/06/30 01:02:39;;;;;;;7.60;2.33;;;19.20;99.90;;;;;;5077714;28;20425;-65
2022/06/30 01:05:06;;;;;;;4.80;1.98;;;19.10;99.90;;;;;;5060267;28;20062;-65
2022/06/30 01:07:33;;;;;;;5.28;2.03;;;19.00;99.90;;;;;;5077457;28;20077;-62
2022/06/30 01:12:45;;;;;;;5.18;2.10;;;19.10;99.90;;;;;;5077440;28;20047;-63
2022/06/30 01:15:15;;;;;;;5.88;1.95;;;19.00;99.90;;;;;;5077393;28;20033;-62
2022/06/30 01:17:42;;;;;;;6.88;1.90;;;19.00;99.90;;;;;;5059919;28;20039;-62
2022/06/30 01:20:09;;;;;;;3.83;1.85;;;19.00;99.90;;;;;;5077299;28;20025;-65
2022/06/30 01:22:35;;;;;;;4.00;1.63;;;18.90;99.90;;;;;;5077539;28;20044;-63
2022/06/30 01:25:02;;;;;;;3.55;1.90;;;19.00;99.90;;;;;;5077493;28;20047;-64
2022/06/30 01:27:27;;;;;;;3.28;1.80;;;19.10;99.90;;;;;;5077243;28;20083;-63
2022/06/30 01:29:53;;;;;;;5.03;1.70;;;19.10;99.90;;;;;;5078012;28;20033;-65
2022/06/30 01:32:19;;;;;;;4.32;1.75;;;19.00;99.90;;;;;;5077326;28;20105;-65
2022/06/30 01:34:45;;;;;;;6.30;1.98;;;19.00;99.90;;;;;;5077067;28;20042;-64
2022/06/30 01:37:11;;;;;;;3.45;1.73;;;19.00;99.90;;;;;;5077016;28;20427;-64
2022/06/30 01:39:37;;;;;;;3.88;1.90;;;19.00;99.90;;;;;;5077076;28;20067;-65
2022/06/30 01:42:03;;;;;;;4.55;1.92;;;19.10;99.90;;;;;;5077445;28;20025;-68
2022/06/30 01:44:29;;;;;;;5.40;2.30;;;19.10;99.90;;;;;;5026890;28;20043;-62
2022/06/30 01:46:55;;;;;;;5.07;2.30;;;19.20;99.90;;;;;;5077643;28;20024;-63
2022/06/30 01:49:21;;;;;;;4.60;2.38;;;19.20;99.90;;;;;;5076876;28;20062;-67
2022/06/30 01:51:46;;;;;;;4.13;2.65;;;19.00;99.90;;;;;;5077274;28;20039;-64
2022/06/30 01:54:12;;;;;;;5.22;2.50;;;19.10;99.90;;;;;;5059628;28;20112;-64
2022/06/30 01:56:39;;;;;;;5.20;2.88;;;19.00;99.90;;;;;;5060133;28;20028;-64
2022/06/30 01:59:06;;;;;;;6.80;3.10;;;18.90;99.90;;;;;;5062869;28;20116;-64
2022/06/30 02:01:32;;;;;;;6.90;3.30;;;19.00;99.90;;;;;;5081419;28;20389;-65
2022/06/30 02:06:45;;;;;;;5.78;2.90;;;18.90;99.90;;;;;;5050350;28;20052;-62
2022/06/30 02:09:11;;;;;;;7.82;3.25;;;18.90;99.90;;;;;;5081130;28;20051;-65
2022/06/30 02:11:37;;;;;;;6.20;3.28;;;18.90;99.90;;;;;;5063232;28;20412;-64
2022/06/30 02:14:03;;;;;;;8.23;3.42;;;18.90;99.90;;;;;;5080679;28;20048;-64
2022/06/30 02:16:29;;;;;;;4.78;3.30;;;18.90;99.90;;;;;;5081100;28;20403;-63
2022/06/30 02:18:54;;;;;;;5.65;3.65;;;18.90;99.90;;;;;;5080695;28;20111;-62
2022/06/30 02:21:20;;;;;;;4.10;3.22;;;18.70;99.90;;;;;;5063469;28;20064;-62
2022/06/30 02:23:46;;;;;;;6.88;3.55;;;18.70;99.90;;;;;;5063627;28;20033;-63
2022/06/30 02:26:12;;;;;;;5.68;4.00;;;18.70;99.90;;;;;;5080745;28;20117;-61
2022/06/30 02:28:37;;;;;;;5.43;3.95;;;18.70;99.90;;;;;;5080374;28;20060;-62
2022/06/30 02:31:03;;;;;;;6.22;3.85;;;18.60;99.90;;;;;;5080413;28;20033;-61
2022/06/30 02:33:29;;;;;;;8.63;3.92;;;18.60;99.90;;;;;;5062972;28;20037;-61
2022/06/30 02:35:55;;;;;;;6.38;3.78;;;18.50;99.90;;;;;;5080620;28;20438;-62
2022/06/30 02:38:21;;;;;;;5.63;3.70;;;18.50;99.90;;;;;;5062795;28;20376;-61
2022/06/30 02:40:46;;;;;;;5.75;4.25;;;18.50;99.90;;;;;;5062854;28;20028;-62
2022/06/30 02:43:12;;;;;;;6.88;4.60;;;18.50;99.90;;;;;;5080002;28;20052;-62
2022/06/30 02:45:38;;;;;;;5.68;4.38;;;18.50;99.90;;;;;;5080109;28;20055;-62
2022/06/30 02:48:04;;;;;;;6.72;4.65;;;18.50;99.90;;;;;;5062710;28;20116;-62
2022/06/30 02:50:30;;;;;;;7.50;4.50;;;18.50;99.90;;;;;;5079939;28;20041;-62
2022/06/30 02:52:56;;;;;;;4.82;4.40;;;18.40;99.90;;;;;;5062577;28;20032;-62
2022/06/30 02:55:22;;;;;;;6.57;4.70;;;18.50;99.90;;;;;;5062707;28;20030;-63
2022/06/30 02:57:47;;;;;;;6.18;4.07;;;18.50;99.90;;;;;;5080004;28;20032;-61
2022/06/30 03:00:13;;;;;;;8.63;4.60;;;18.40;99.90;;;;;;5080144;28;20436;-62
2022/06/30 03:02:40;;;;;;;7.38;4.63;;;18.50;99.90;;;;;;5079908;28;20025;-64
2022/06/30 03:05:07;;;;;;;9.93;5.88;;;18.50;99.90;;;;;;5079916;28;20036;-64
2022/06/30 03:07:33;;;;;;;9.07;6.07;;;18.40;99.90;;;;;;5062395;28;20033;-64
2022/06/30 03:09:59;;;;;;;9.85;6.00;;;18.20;99.90;;;;;;5079147;28;20097;-62
2022/06/30 03:12:25;;;;;;;10.40;6.05;;;18.20;99.90;;;;;;5079925;28;20037;-63
2022/06/30 03:14:51;;;;;;;11.85;5.07;;;17.90;99.90;;;;;;5080369;28;20032;-61
2022/06/30 03:17:17;;;;;;;10.27;5.22;;;17.60;99.90;;;;;;5080017;28;20354;-64
2022/06/30 03:19:43;;;;;;;8.57;5.03;;;17.60;99.90;;;;;;5079755;28;20028;-63
2022/06/30 03:22:09;;;;;;;7.25;4.78;;;17.50;99.90;;;;;;5080154;28;20177;-70
2022/06/30 03:24:34;;;;;;;8.43;4.55;;;17.50;99.90;;;;;;5079539;28;20032;-63
2022/06/30 03:27:00;;;;;;;10.15;4.40;;;17.40;99.90;;;;;;5061903;28;20057;-63
2022/06/30 03:29:27;;;;;;;11.88;4.97;;;17.50;99.90;;;;;;5079126;28;20070;-62
2022/06/30 03:31:53;;;;;;;9.18;3.83;;;17.60;99.90;;;;;;5062137;28;20311;-65
2022/06/30 03:34:19;;;;;;;11.77;4.63;;;17.50;99.90;;;;;;5079045;28;20036;-63
2022/06/30 03:36:45;;;;;;;12.70;4.80;;;17.50;99.90;;;;;;5079626;28;20388;-62
2022/06/30 03:39:10;;;;;;;10.95;4.25;;;17.50;99.90;;;;;;5045323;28;20375;-63
2022/06/30 03:41:36;;;;;;;12.82;4.10;;;17.60;99.90;;;;;;5079226;28;20273;-62
2022/06/30 03:44:02;;;;;;;8.25;3.95;;;17.70;99.90;;;;;;5061745;28;20408;-62
2022/06/30 03:46:28;;;;;;;11.38;4.03;;;17.80;99.90;;;;;;5061516;28;20032;-61
2022/06/30 03:48:54;;;;;;;8.45;3.70;;;17.70;99.90;;;;;;5078842;28;20296;-63
2022/06/30 03:51:20;;;;;;;9.30;3.50;;;17.60;99.90;;;;;;5078967;28;20025;-62
2022/06/30 03:53:46;;;;;;;11.70;4.03;;;17.60;99.90;;;;;;5061403;28;20119;-63
2022/06/30 03:56:11;;;;;;;10.90;4.05;;;17.50;99.90;;;;;;5078951;28;20029;-62
2022/06/30 03:58:37;;;;;;;11.50;3.95;;;17.50;99.90;;;;;;5078695;28;20033;-64
2022/06/30 04:01:03;;;;;;;10.10;3.75;;;17.40;99.90;;;;;;5078624;28;20039;-65
2022/06/30 04:03:29;;;;;;;10.05;3.90;;;17.40;99.90;;;;;;5061308;28;20103;-61
2022/06/30 04:05:54;;;;;;;11.50;4.00;;;17.50;99.90;;;;;;5078748;28;20024;-62
2022/06/30 04:08:20;;;;;;;10.35;3.83;;;17.50;99.90;;;;;;5078245;28;20124;-62
2022/06/30 04:10:46;;;;;;;9.95;3.92;;;17.40;99.90;;;;;;5078406;28;20056;-64
2022/06/30 04:13:12;;;;;;;9.75;3.30;;;17.50;99.90;;;;;;5078375;28;20355;-63
2022/06/30 04:15:38;;;;;;;14.15;3.88;;;17.50;99.90;;;;;;5060923;28;20032;-63
2022/06/30 04:18:04;;;;;;;10.35;4.45;;;17.60;99.90;;;;;;5061108;28;20396;-62
2022/06/30 04:20:29;;;;;;;12.07;4.57;;;17.60;99.90;;;;;;5078372;28;20347;-62
2022/06/30 04:22:55;;;;;;;13.60;5.22;;;17.60;99.90;;;;;;5060182;28;20098;-63
2022/06/30 04:25:21;;;;;;;11.85;4.72;;;17.70;99.90;;;;;;5078427;28;20039;-64
2022/06/30 04:27:52;;;;;;;11.63;4.65;;;17.70;99.90;;;;;;5078384;28;20079;-65
2022/06/30 04:33:04;;;;;;;7.95;3.72;;;17.80;99.90;;;;;;5078188;28;20033;-63
2022/06/30 04:35:30;;;;;;;9.23;4.53;;;17.70;99.90;;;;;;5078013;28;20028;-62
2022/06/30 04:37:59;;;;;;;10.50;4.50;;;17.60;99.90;;;;;;5078153;28;20028;-63
2022/06/30 04:43:10;;;;;;;10.43;5.05;;;17.60;99.90;;;;;;5078471;28;20031;-63
2022/06/30 04:45:36;;;;;;;10.98;3.90;;;17.40;99.90;;;;;;5077924;28;20408;-62
2022/06/30 04:48:02;;;;;;;9.10;3.95;;;17.50;99.90;;;;;;5077821;28;20036;-65
2022/06/30 04:50:29;;;;;;;10.10;3.45;;;17.50;99.90;;;;;;5077902;28;20033;-62
2022/06/30 04:52:55;;;;;;;10.38;3.10;;;17.50;99.90;;;;;;5077794;28;20036;-63
2022/06/30 04:55:21;;;;;;;6.80;2.80;;;17.60;99.90;;;;;;5077962;28;20425;-63
2022/06/30 04:57:47;;;;;;;5.68;2.38;;;17.50;99.90;;;;;;5077696;28;20017;-62
2022/06/30 05:00:13;;;;;;;9.32;2.88;;;17.40;99.90;;;;;;5077500;28;20162;-63
2022/06/30 05:02:39;;;;;;;5.00;2.47;;;17.50;99.90;;;;;;5077520;28;20036;-62
2022/06/30 05:05:06;;;;;;;6.97;2.75;;;17.60;99.90;;;;;;5077447;28;20032;-62
2022/06/30 05:07:32;;;;;;;4.75;1.85;;;17.80;99.90;;;;;;5077292;28;20037;-63
2022/06/30 05:09:58;;;;;;;6.22;2.63;;;18.00;99.90;;;;;;5077374;28;20052;-64
2022/06/30 05:12:24;;;;;;;9.82;2.45;;;18.10;99.90;;;;;;5077629;28;20024;-60
2022/06/30 05:14:50;;;;;;;5.55;1.92;;;18.30;99.90;;;;;;5077449;28;20025;-63
2022/06/30 05:17:16;;;;;;;6.75;1.75;;;18.40;99.90;;;;;;5077179;28;20028;-64
2022/06/30 05:19:41;;;;;;;5.18;1.77;;;18.50;99.90;;;;;;5060636;28;20439;-65
2022/06/30 05:22:07;;;;;;;5.35;1.83;;;18.60;99.90;;;;;;5077792;28;20024;-64
2022/06/30 05:27:17;;;;;;;4.22;1.85;;;18.60;99.90;;;;;;5077368;28;20055;-62
2022/06/30 05:29:43;;;;;;;3.75;1.70;;;18.50;99.90;;;;;;5077436;28;20025;-64
2022/06/30 05:32:09;;;;;;;3.92;1.35;;;18.50;99.90;;;;;;5077337;28;20047;-63
2022/06/30 05:34:35;;;;;;;7.45;1.67;;;18.50;99.90;;;;;;5059626;28;20036;-63
2022/06/30 05:37:02;;;;;;;5.65;1.50;;;18.40;99.90;;;;;;5077024;28;20044;-64
2022/06/30 05:39:28;;;;;;;3.45;1.33;;;18.50;99.90;;;;;;5077488;28;20029;-64
2022/06/30 05:41:54;;;;;;;3.92;1.40;;;18.60;99.90;;;;;;5059591;28;20435;-63
2022/06/30 05:44:20;;;;;;;6.50;1.80;;;18.60;99.90;;;;;;5077390;28;20036;-64
2022/06/30 05:46:46;;;;;;;5.63;1.42;;;18.80;99.90;;;;;;5059831;28;20419;-63
2022/06/30 05:49:12;;;;;;;6.32;1.63;;;18.90;99.90;;;;;;5077393;28;20064;-63
2022/06/30 05:51:37;;;;;;;4.80;1.40;;;19.10;99.90;;;;;;5076739;28;20346;-61
2022/06/30 05:54:03;;;;;;;4.45;1.58;;;19.20;99.90;;;;;;5076744;28;20394;-63
2022/06/30 05:56:29;;;;;;;3.63;1.15;;;19.30;99.90;;;;;;5059438;28;20121;-64
2022/06/30 05:58:55;;;;;;;5.75;1.40;;;19.30;99.90;;;;;;5076788;28;20115;-66
2022/06/30 06:01:21;;;;;;;3.90;1.30;;;19.40;99.90;;;;;;5076737;28;20060;-64
2022/06/30 06:03:47;;;;;;;4.20;1.40;;;19.40;99.90;;;;;;5076640;28;20063;-65
2022/06/30 06:06:12;;;;;;;3.22;1.38;;;19.40;99.90;;;;;;5059320;28;20384;-63
2022/06/30 06:08:38;;;;;;;4.80;1.40;;;19.50;99.90;;;;;;5059378;28;20024;-69
2022/06/30 06:11:04;;;;;;;3.92;1.35;;;19.50;99.90;;;;;;5059132;28;20033;-64
2022/06/30 06:13:30;;;;;;;6.38;1.38;;;19.70;99.90;;;;;;5058975;28;20044;-67
2022/06/30 06:15:56;;;;;;;4.60;1.27;;;19.90;99.90;;;;;;5059540;28;20020;-65
2022/06/30 06:18:21;;;;;;;2.92;1.25;;;20.00;99.90;;;;;;5076495;28;20036;-64
2022/06/30 06:20:47;;;;;;;3.15;1.20;;;19.80;99.90;;;;;;5076750;28;20033;-65
2022/06/30 06:23:13;;;;;;;7.40;1.67;;;19.80;99.90;;;;;;5059522;28;20119;-64
2022/06/30 06:25:39;;;;;;;5.30;1.90;;;19.70;99.90;;;;;;5076447;28;20029;-64
2022/06/30 06:30:49;;;;;;;7.63;1.92;;;19.80;99.90;;;;;;5076734;28;20047;-65
2022/06/30 06:33:15;;;;;;;5.10;2.05;;;20.10;99.90;;;;;;5076307;28;20032;-65
2022/06/30 06:35:41;;;;;;;6.80;1.88;;;20.40;99.90;;;;;;5076316;28;20033;-64
2022/06/30 06:38:06;;;;;;;4.25;1.63;;;20.50;99.90;;;;;;5076406;28;20039;-65
2022/06/30 06:40:32;;;;;;;4.82;1.65;;;20.70;99.90;;;;;;5076408;28;20136;-65
2022/06/30 06:42:58;;;;;;;6.63;1.80;;;20.70;99.90;;;;;;5058872;28;20419;-64
2022/06/30 06:45:24;;;;;;;6.70;2.08;;;20.40;99.90;;;;;;5078055;28;20181;-66
2022/06/30 06:47:49;;;;;;;9.50;1.95;;;20.50;99.90;;;;;;5079942;28;20028;-64
2022/06/30 06:50:15;;;;;;;10.25;2.70;;;20.40;99.90;;;;;;5062434;28;20430;-66
2022/06/30 06:52:41;;;;;;;6.63;2.20;;;20.50;99.90;;;;;;5079821;28;20029;-65
2022/06/30 06:55:07;;;;;;;5.18;2.00;;;20.70;99.90;;;;;;5079853;28;20021;-64
2022/06/30 06:57:35;;;;;;;7.03;1.88;;;20.70;99.90;;;;;;5079940;28;20305;-65
2022/06/30 07:00:03;;;;;;;4.82;1.90;;;20.60;99.90;;;;;;5079734;28;20021;-64
2022/06/30 07:02:29;;;;;;;5.25;1.70;;;20.00;99.90;;;;;;5079809;28;20093;-64
2022/06/30 07:04:54;;;;;;;5.93;1.90;;;20.00;99.90;;;;;;5079993;28;20392;-62
2022/06/30 07:07:20;;;;;;;3.03;1.38;;;20.00;99.90;;;;;;5079984;28;20028;-62
2022/06/30 07:09:46;;;;;;;6.43;1.73;;;19.60;99.90;;;;;;5062287;28;20040;-64
2022/06/30 07:12:12;;;;;;;4.95;1.67;;;19.80;99.90;;;;;;5079502;28;20043;-65
2022/06/30 07:14:37;;;;;;;3.58;1.60;;;20.20;99.90;;;;;;5079497;28;20029;-66
2022/06/30 07:17:04;;;;;;;5.78;1.92;;;20.30;99.90;;;;;;5079447;28;20093;-64
2022/06/30 07:19:30;;;;;;;5.25;1.80;;;20.40;99.90;;;;;;5062065;28;20064;-62
2022/06/30 07:21:56;;;;;;;6.68;2.05;;;20.60;99.90;;;;;;5079206;28;20115;-63
2022/06/30 07:24:22;;;;;;;3.38;1.63;;;20.80;99.90;;;;;;5079418;28;20288;-65
2022/06/30 07:26:47;;;;;;;3.42;2.13;;;20.90;99.90;;;;;;5061744;28;20048;-63
2022/06/30 07:29:13;;;;;;;4.93;2.15;;;20.90;99.90;;;;;;5079366;28;20169;-64
2022/06/30 07:31:39;;;;;;;4.10;2.30;;;20.90;99.90;;;;;;5079318;28;20036;-66
2022/06/30 07:34:05;;;;;;;6.10;2.80;;;20.80;99.90;;;;;;5079112;28;20117;-63
2022/06/30 07:36:31;;;;;;;6.15;2.67;;;20.70;99.90;;;;;;5061721;28;20037;-68
2022/06/30 07:38:56;;;;;;;7.93;2.45;;;20.90;99.90;;;;;;5061701;28;20116;-64
2022/06/30 07:41:24;;;;;;;7.80;2.17;;;21.00;99.90;;;;;;5044999;28;20033;-66
2022/06/30 07:43:51;;;;;;;7.32;2.10;;;20.90;99.90;;;;;;5045110;28;20051;-63
2022/06/30 07:46:17;;;;;;;7.78;2.65;;;20.90;99.90;;;;;;5078976;28;20027;-66
2022/06/30 07:48:44;;;;;;;8.02;2.70;;;20.70;99.90;;;;;;5061461;28;20036;-63
2022/06/30 07:51:09;;;;;;;3.53;2.67;;;20.80;99.90;;;;;;5078693;28;20124;-65
2022/06/30 07:53:35;;;;;;;5.13;2.38;;;20.90;99.90;;;;;;5078800;28;20387;-64
2022/06/30 07:56:01;;;;;;;8.93;2.55;;;21.10;99.90;;;;;;5060823;28;20029;-61
2022/06/30 07:58:27;;;;;;;7.28;2.40;;;21.00;99.90;;;;;;5061461;28;20029;-64
2022/06/30 08:00:53;;;;;;;8.70;2.33;;;21.10;99.90;;;;;;5078712;28;20052;-62
2022/06/30 08:03:19;;;;;;;7.45;2.22;;;20.80;99.90;;;;;;5061057;28;20300;-63
2022/06/30 08:05:44;;;;;;;5.93;2.90;;;20.90;99.90;;;;;;5078768;28;20029;-65
2022/06/30 08:08:10;;;;;;;7.25;2.50;;;21.00;99.90;;;;;;5078292;28;20036;-63
2022/06/30 08:10:36;;;;;;;5.80;2.72;;;21.00;99.90;;;;;;5078573;28;20055;-66
2022/06/30 08:13:02;;;;;;;5.80;2.55;;;20.90;99.90;;;;;;5078437;28;20043;-64
2022/06/30 08:15:27;;;;;;;6.93;2.33;;;20.80;99.90;;;;;;5078180;28;20083;-66
2022/06/30 08:17:53;;;;;;;5.45;2.60;;;21.00;99.90;;;;;;5060792;28;20062;-63
2022/06/30 08:20:19;;;;;;;10.35;2.42;;;21.20;99.90;;;;;;5078113;28;20300;-60
2022/06/30 08:22:45;;;;;;;8.68;2.70;;;20.80;99.90;;;;;;5043971;28;20309;-63
2022/06/30 08:25:11;;;;;;;4.22;2.25;;;20.40;99.90;;;;;;5060555;28;20331;-63
2022/06/30 08:27:36;;;;;;;4.78;2.15;;;20.40;99.90;;;;;;5077797;28;20060;-63
2022/06/30 08:30:02;;;;;;;6.55;2.40;;;20.60;99.90;;;;;;5060535;28;20138;-63
2022/06/30 08:32:29;;;;;;;7.53;2.70;;;20.50;99.90;;;;;;5077918;28;20408;-65
2022/06/30 08:34:55;;;;;;;8.88;3.10;;;20.80;99.90;;;;;;5077836;28;20103;-63
2022/06/30 08:37:20;;;;;;;6.72;2.78;;;21.00;99.90;;;;;;5077680;28;20063;-64
2022/06/30 08:42:32;;;;;;;5.00;2.35;;;21.10;99.90;;;;;;5077592;28;20033;-61
2022/06/30 08:45:13;;;;;;;6.45;2.50;;;21.40;99.90;;;;;;5077567;28;20044;-68
2022/06/30 08:47:40;;;;;;;5.85;2.22;;;21.70;99.90;;;;;;5077620;28;20033;-66
2022/06/30 08:50:08;;;;;;;13.05;2.55;;;22.00;99.90;;;;;;5077531;28;20020;-67
2022/06/30 08:52:45;;;;;;;4.95;2.13;;;21.90;99.90;;;;;;5060379;28;20033;-65
2022/06/30 08:55:16;;;;;;;6.25;2.15;;;21.60;99.90;;;;;;5059868;28;20431;-63
2022/06/30 08:57:43;;;;;;;3.90;2.30;;;21.00;99.90;;;;;;5077282;28;20020;-61
2022/06/30 09:00:11;;;;;;;4.90;2.40;;;21.10;99.90;;;;;;5077348;28;20044;-63
2022/06/30 09:02:37;;;;;;;4.15;2.05;;;21.20;99.90;;;;;;5077264;28;20024;-63
2022/06/30 09:05:03;;;;;;;6.32;2.65;;;21.50;99.90;;;;;;5078335;28;20040;-62
2022/06/30 09:07:30;;;;;;;6.63;2.25;;;21.20;99.90;;;;;;5076698;28;20041;-63
2022/06/30 09:09:56;;;;;;;7.53;2.40;;;21.40;99.90;;;;;;5077115;28;20300;-65
2022/06/30 09:12:22;;;;;;;4.07;2.05;;;21.70;99.90;;;;;;5077056;28;20017;-64
2022/06/30 09:14:49;;;;;;;3.80;1.88;;;21.90;99.90;;;;;;5077148;28;20032;-62
2022/06/30 09:17:19;;;;;;;7.68;1.90;;;22.00;99.90;;;;;;5077403;28;20374;-62
2022/06/30 09:20:02;;;;;;;6.72;1.90;;;21.90;99.90;;;;;;5060268;28;20058;-63
2022/06/30 09:22:34;;;;;;;6.35;2.00;;;22.50;99.90;;;;;;5059987;28;20407;-63
2022/06/30 09:25:06;;;;;;;6.07;2.15;;;22.60;99.90;;;;;;5077485;28;20028;-63
2022/06/30 09:27:34;;;;;;;5.38;2.00;;;22.90;99.90;;;;;;5076832;28;20072;-62
2022/06/30 09:30:04;;;;;;;6.82;2.20;;;23.30;99.90;;;;;;5077220;28;20029;-60
2022/06/30 09:33:02;;;;;;;4.53;1.98;;;23.30;99.90;;;;;;5077079;28;20020;-66
2022/06/30 09:35:30;;;;;;;3.17;1.90;;;23.20;99.90;;;;;;5076950;28;20021;-61
2022/06/30 09:38:05;;;;;;;2.30;1.35;;;23.30;99.90;;;;;;5076913;28;20040;-63
2022/06/30 09:43:34;;;;;;;6.05;1.58;;;23.80;99.90;;;;;;5076669;28;20044;-66
2022/06/30 09:45:59;;;;;;;3.45;1.40;;;24.10;99.90;;;;;;5076869;28;20070;-63
2022/06/30 09:48:31;;;;;;;5.15;1.50;;;24.60;99.90;;;;;;5076643;28;20028;-62
2022/06/30 09:51:01;;;;;;;4.00;1.33;;;24.50;99.90;;;;;;5059218;28;20032;-62
2022/06/30 09:53:27;;;;;;;4.30;1.45;;;24.30;99.90;;;;;;5076711;28;20025;-65
2022/06/30 09:55:54;;;;;;;2.50;1.30;;;24.00;99.90;;;;;;5076902;28;20048;-62
2022/06/30 09:58:26;;;;;;;3.40;1.70;;;23.60;99.90;;;;;;5058962;28;20178;-63
2022/06/30 10:00:52;;;;;;;3.45;1.48;;;23.10;99.90;;;;;;5059029;28;20085;-66
2022/06/30 10:03:21;;;;;;;4.05;1.40;;;23.20;99.90;;;;;;5042287;28;20123;-62
2022/06/30 10:06:06;;;;;;;4.43;1.40;;;23.70;99.90;;;;;;5076872;28;20037;-62
2022/06/30 10:08:33;;;;;;;2.17;1.30;;;24.20;99.90;;;;;;5076452;28;20403;-59
2022/06/30 10:11:00;;;;;;;5.13;1.58;;;24.00;99.90;;;;;;5076461;28;20025;-62
2022/06/30 10:13:26;;;;;;;4.13;1.95;;;24.20;99.90;;;;;;5076391;28;20024;-67
2022/06/30 10:15:54;;;;;;;5.47;1.70;;;24.10;99.90;;;;;;5076417;28;20033;-63
2022/06/30 10:18:25;;;;;;;3.03;1.45;;;24.60;99.90;;;;;;5076395;28;20086;-65
2022/06/30 10:20:51;;;;;;;4.35;1.27;;;25.00;99.90;;;;;;5079228;28;20296;-65
2022/06/30 10:23:23;;;;;;;4.35;1.52;;;25.10;99.90;;;;;;5063229;28;20033;-62
2022/06/30 10:25:50;;;;;;;3.63;1.30;;;24.20;99.90;;;;;;5063174;28;20307;-64
2022/06/30 10:28:19;;;;;;;3.10;1.77;;;23.90;99.90;;;;;;5080410;28;20032;-62
2022/06/30 10:31:13;;;;;;;4.70;2.00;;;23.50;99.90;;;;;;5080196;28;20028;-62
2022/06/30 10:33:57;;;;;;;3.17;1.40;;;22.90;99.90;;;;;;5080769;28;20032;-61
2022/06/30 10:36:31;;;;;;;3.85;1.70;;;22.90;99.90;;;;;;5080141;28;20040;-62
2022/06/30 10:39:34;;;;;;;4.07;1.45;;;22.30;99.90;;;;;;5080046;28;20036;-62
2022/06/30 10:41:59;;;;;;;;;;;22.20;99.90;;;;;;5080554;28;20028;-63
2022/06/30 10:44:27;;;;;;;3.63;1.30;;;22.20;99.90;;;;;;5080416;28;19908;-66
2022/06/30 10:46:55;;;;;;;2.38;1.10;;;21.70;99.90;;;;;;5080054;28;20032;-68
2022/06/30 10:49:23;;;;;;;2.72;0.90;;;21.80;99.90;;;;;;5080255;28;20029;-63
2022/06/30 10:51:49;;;;;;;4.90;1.08;;;21.60;99.90;;;;;;5079690;28;20115;-63
2022/06/30 10:54:29;;;;;;;4.82;1.50;;;21.80;99.90;;;;;;5080196;28;20082;-62
2022/06/30 10:56:57;;;;;;;5.43;1.50;;;22.10;99.90;;;;;;5079958;28;20043;-61
2022/06/30 10:59:36;;;;;;;4.22;1.15;;;22.10;99.90;;;;;;5062560;28;20296;-68
2022/06/30 11:02:10;;;;;;;4.50;1.10;;;22.30;99.90;;;;;;5046005;28;20036;-64
2022/06/30 11:04:41;;;;;;;3.65;0.90;;;22.20;99.90;;;;;;5079755;28;20028;-63
2022/06/30 11:07:08;;;;;;;1.27;0.80;;;21.60;99.90;;;;;;5079604;28;20059;-64
2022/06/30 11:09:43;;;;;;;2.30;0.80;;;21.80;99.90;;;;;;5079564;28;20020;-62
2022/06/30 11:12:13;;;;;;;2.70;0.82;;;22.00;99.90;;;;;;5079482;28;20118;-69
2022/06/30 11:14:50;;;;;;;1.10;0.63;;;22.20;99.90;;;;;;5045390;28;20379;-63
2022/06/30 11:17:18;;;;;;;2.25;0.80;;;22.20;99.90;;;;;;5079324;28;20082;-63
2022/06/30 11:19:44;;;;;;;2.40;0.80;;;22.40;99.90;;;;;;5079864;28;20288;-66
2022/06/30 11:22:15;;;;;;;1.77;0.70;;;22.40;99.90;;;;;;5061938;28;20310;-65
2022/06/30 11:24:45;;;;;;;4.43;1.15;;;22.70;99.90;;;;;;5079219;28;20273;-66
2022/06/30 11:27:17;;;;;;;4.65;0.93;;;23.30;99.90;;;;;;5079274;28;20424;-64
2022/06/30 11:29:45;;;;;;;3.97;1.13;;;24.00;99.90;;;;;;5062001;28;20107;-67
2022/06/30 11:32:11;;;;;;;3.88;1.10;;;24.80;99.90;;;;;;5079020;28;20352;-66
2022/06/30 11:34:40;;;;;;;5.68;0.98;;;25.20;99.90;;;;;;5079536;28;20396;-65
2022/06/30 11:37:09;;;;;;;4.20;1.00;;;24.80;99.90;;;;;;5079361;28;20029;-68
2022/06/30 11:39:36;;;;;;;4.63;1.08;;;24.20;99.90;;;;;;5062356;28;20025;-65
2022/06/30 11:42:11;;;;;;;2.85;1.00;;;23.60;99.90;;;;;;5079141;28;20323;-65
2022/06/30 11:44:39;;;;;;;4.13;1.30;;;23.40;99.90;;;;;;5079207;28;20060;-65
2022/06/30 11:47:15;;;;;;;4.32;0.90;;;23.20;99.90;;;;;;5078990;28;20032;-66
2022/06/30 11:49:48;;;;;;;5.78;1.10;;;22.70;99.90;;;;;;5079032;28;20404;-67
2022/06/30 11:52:20;;;;;;;6.22;1.45;;;22.60;99.90;;;;;;5079198;28;20308;-64
2022/06/30 11:54:56;;;;;;;7.40;1.30;;;22.40;99.90;;;;;;5062072;28;20063;-63
2022/06/30 11:57:31;;;;;;;6.05;1.60;;;22.30;99.90;;;;;;5078834;28;20384;-67
2022/06/30 12:00:05;;;;;;;3.30;1.20;;;22.50;99.90;;;;;;5078829;28;20047;-64
2022/06/30 12:02:35;;;;;;;2.70;1.02;;;22.30;99.90;;;;;;5078937;28;20412;-64
2022/06/30 12:05:03;;;;;;;3.97;0.90;;;22.50;99.90;;;;;;5079222;28;20283;-64
2022/06/30 12:07:30;;;;;;;3.05;0.90;;;22.50;99.90;;;;;;5078748;28;20392;-65
2022/06/30 12:09:57;;;;;;;1.65;0.82;;;22.20;99.90;;;;;;5061095;28;20028;-64
2022/06/30 12:12:28;;;;;;;2.97;0.80;;;22.10;99.90;;;;;;5061099;28;20038;-64
2022/06/30 12:15:02;;;;;;;1.95;0.65;;;22.40;99.90;;;;;;5078551;28;20396;-63
2022/06/30 12:17:39;;;;;;;3.03;0.80;;;21.80;99.90;;;;;;5078446;28;20071;-63
2022/06/30 12:20:10;;;;;;;1.45;0.63;;;21.60;99.90;;;;;;5078511;28;20024;-65
2022/06/30 12:22:44;;;;;;;3.88;1.10;;;21.40;99.90;;;;;;5078362;28;20112;-66
2022/06/30 12:25:11;;;;;;;2.17;0.70;;;21.30;99.90;;;;;;5078330;28;20043;-64
2022/06/30 12:27:40;;;;;;;2.72;0.70;;;21.70;99.90;;;;;;5077988;28;20060;-63
2022/06/30 12:30:10;;;;;;;5.85;1.02;;;22.20;99.90;;;;;;5078178;28;20269;-64
2022/06/30 12:32:36;;;;;;;2.53;1.02;;;23.20;99.90;;;;;;5078014;28;20306;-66
2022/06/30 12:35:08;;;;;;;5.18;1.52;;;23.80;99.90;;;;;;5078687;28;20254;-63
2022/06/30 12:37:37;;;;;;;4.97;1.65;;;23.90;99.90;;;;;;5078130;28;20096;-62
2022/06/30 12:40:12;;;;;;;6.65;1.73;;;23.30;99.90;;;;;;5078253;28;20396;-64
2022/06/30 12:42:43;;;;;;;4.95;1.90;;;23.30;99.90;;;;;;5076848;28;20065;-63
2022/06/30 12:45:34;;;;;;;5.65;2.00;;;23.10;99.90;;;;;;5077853;28;20025;-61
2022/06/30 12:48:05;;;;;;;5.20;2.08;;;22.60;99.90;;;;;;5077719;28;20077;-66
2022/06/30 12:50:32;;;;;;;9.40;2.30;;;22.70;99.90;;;;;;5077827;28;20094;-67
2022/06/30 12:53:23;;;;;;;7.43;2.50;;;22.60;99.90;;;;;;5077901;28;20451;-66
2022/06/30 12:56:17;;;;;;;8.85;2.83;;;22.40;99.90;;;;;;5078302;28;20032;-63
2022/06/30 12:58:43;;;;;;;7.07;2.20;;;21.90;99.90;;;;;;5077663;28;20043;-67
2022/06/30 13:01:13;;;;;;;5.05;2.08;;;22.00;99.90;;;;;;5077491;28;20103;-66
2022/06/30 13:04:02;;;;;;;7.35;2.55;;;21.90;99.90;;;;;;5077583;28;20307;-63
2022/06/30 13:06:31;;;;;;;4.78;2.47;;;21.80;99.90;;;;;;5077451;28;20028;-62
2022/06/30 13:08:57;;;;;;;4.32;2.22;;;21.20;99.90;;;;;;5077398;28;20101;-64
2022/06/30 13:11:26;;;;;;;5.68;2.60;;;21.00;99.90;;;;;;5059818;28;20127;-61